Latest Coastal Weather Observations for Learmonth

IDW60701

Issued at 2:05 pm WST Monday 22 September 2014 (issued every 10 minutes, with the page automatically refreshed every 10 minutes)

About coastal observations | Map of coastal stations | Coastal observations for WA | Marine services | Other Formats
Station Details ID: 005007 Name: LEARMONTH AIRPORT Lat: -22.24 Lon: 114.10 Height: 5.0 m
Data from the previous 72 hours. | See also: Recent months at Learmonth
Date/Time
WST
Temp

°C
Wind Pressure Rain
since 9am
mm
Weather Cloud Vis
km
Sea
Height
m
Swell
Dir
 
Speed
knots
Gust
knots
hPa Trend Height
m
Period
s
Dir
22/02:00pm 25.9 SSE 22 31 1018.2 - 0.0 - - 10 - - - -
22/01:30pm 26.1 S 20 27 1018.4 - 0.0 - - 10 - - - -
22/01:00pm 25.3 SSE 20 30 1018.6 - 0.0 - - 10 - - - -
22/12:53pm 25.0 SSE 20 30 1018.7 - 0.0 - - 10 - - - -
22/12:30pm 25.2 SSE 21 30 1019.2 - 0.0 - - 10 - - - -
22/12:04pm 25.1 SSE 20 30 1019.6 - 0.0 - - 10 - - - -
22/12:00pm 24.5 SSE 22 30 1019.4 F 0.0 Dust Clear 27 - - - -
22/11:30am 24.0 SSE 22 28 1020.3 - 0.0 - - 10 - - - -
22/11:00am 23.8 S 21 32 1020.8 - 0.0 - - 10 - - - -
22/10:50am 22.9 S 19 29 1020.8 - 0.0 - - 10 - - - -
22/10:30am 22.3 S 20 27 1021.0 - 0.0 - - 10 - - - -
22/10:00am 21.5 SSE 20 27 1021.5 - 0.0 - Mostly clear 10 - - - -
22/09:30am 21.0 SSE 19 27 1021.6 - 0.0 - Mostly clear 10 - - - -
22/09:00am 20.9 SSE 18 23 1021.8 F 0.0 Fine Mostly clear 10 - - - -
22/08:30am 19.6 S 17 23 1021.8 - 0.0 - Mostly clear 10 - - - -
22/08:00am 18.8 S 16 20 1021.8 - 0.0 - - 10 - - - -
22/07:30am 18.0 S 13 19 1021.6 - 0.0 - - 10 - - - -
22/07:00am 16.1 S 8 9 1021.4 - 0.0 - - 10 - - - -
22/06:30am 14.2 SSW 7 9 1021.0 - 0.0 - Partly cloudy 10 - - - -
22/06:00am 15.0 SSW 8 10 1020.7 R 0.0 Smoke Mostly cloudy 23 - - - -
22/05:30am 15.6 S 9 12 1020.4 - 0.0 - Partly cloudy 10 - - - -
22/05:00am 15.3 S 9 11 1020.0 - 0.0 - Partly cloudy 10 - - - -
22/04:30am 15.6 S 8 9 1019.7 - 0.0 - Cloudy 10 - - - -
22/04:00am 14.6 SSW 7 8 1019.6 - 0.0 - Partly cloudy 10 - - - -
22/03:30am 13.9 SSW 8 9 1019.6 - 0.0 - Partly cloudy 10 - - - -
22/03:00am 14.3 S 8 9 1019.3 - 0.0 - Cloudy 10 - - - -
22/02:30am 14.4 SSW 7 8 1019.5 - 0.0 - - 10 - - - -
22/02:00am 15.3 SSW 7 8 1019.6 - 0.0 - - 10 - - - -
22/01:30am 15.7 S 6 7 1019.6 - 0.0 - Partly cloudy 10 - - - -
22/01:00am 16.2 SSW 6 7 1019.7 - 0.0 - Partly cloudy 10 - - - -
22/12:30am 17.3 SSW 7 9 1019.9 - 0.0 - Partly cloudy 10 - - - -
22/12:00am 18.6 SSW 14 19 1019.9 - 0.0 - Cloudy 10 - - - -
 
Date/Time
WST
Temp

°C
Wind Pressure Rain
since 9am
mm
Weather Cloud Vis
km
Sea
Height
m
Swell
Dir
 
Speed
knots
Gust
knots
hPa Trend Height
m
Period
s
Dir
21/11:30pm 18.9 SSW 11 16 1020.1 - 0.0 - Partly cloudy 10 - - - -
21/11:00pm 18.7 SSW 13 18 1020.3 - 0.0 - Partly cloudy 10 - - - -
21/10:30pm 18.0 SSW 10 13 1020.5 - 0.0 - Partly cloudy 10 - - - -
21/10:00pm 18.3 SSW 14 20 1020.5 - 0.0 - Partly cloudy 10 - - - -
21/09:30pm 18.6 SSW 16 23 1020.4 - 0.0 - Partly cloudy 10 - - - -
21/09:17pm 19.0 SSW 15 22 1020.3 - 0.0 - Partly cloudy 10 - - - -
21/09:07pm 19.2 SSW 14 19 1020.3 - 0.0 - Partly cloudy 10 - - - -
21/09:00pm 19.0 SSW 14 22 1020.1 - 0.0 - Cloudy 10 - - - -
21/08:59pm 18.9 SSW 14 22 1020.1 - 0.0 - Partly cloudy 10 - - - -
21/08:36pm 19.6 SSW 16 25 1019.8 - 0.0 - Partly cloudy 10 - - - -
21/08:30pm 19.6 SSW 17 27 1019.8 - 0.0 - Partly cloudy 10 - - - -
21/08:19pm 19.7 SSW 16 27 1019.5 - 0.0 - Partly cloudy 10 - - - -
21/08:00pm 20.1 SSW 18 26 1019.1 - 0.0 - Partly cloudy 10 - - - -
21/07:30pm 20.6 SSW 15 21 1018.5 - 0.0 - Partly cloudy 10 - - - -
21/07:00pm 21.5 SW 16 23 1017.8 - 0.0 - Partly cloudy 10 - - - -
21/06:32pm 21.8 SW 17 27 1017.5 - 0.0 - Partly cloudy 10 - - - -
21/06:30pm 21.9 SW 18 27 1017.4 - 0.0 - Partly cloudy 10 - - - -
21/06:00pm 22.9 SW 22 29 1016.6 - 0.0 - Cloudy 10 - - - -
21/05:30pm 24.2 WSW 21 27 1016.2 - 0.0 - Partly cloudy 10 - - - -
21/05:27pm 24.4 WSW 21 27 1016.0 - 0.0 - Partly cloudy 10 - - - -
21/05:00pm 26.0 W 19 27 1015.7 - 0.0 - Partly cloudy 10 - - - -
21/04:44pm 26.2 W 20 30 1015.8 - 0.0 - Partly cloudy 10 - - - -
21/04:30pm 26.7 W 20 28 1015.8 - 0.0 - Partly cloudy 10 - - - -
21/04:00pm 26.8 W 19 24 1015.8 - 0.0 - Partly cloudy 10 - - - -
21/03:30pm 27.5 W 18 25 1015.8 - 0.0 - - 10 - - - -
21/03:16pm 27.7 W 17 27 1015.8 - 0.0 - - 10 - - - -
21/03:00pm 27.7 WNW 17 25 1015.8 R 0.0 Smoke Partly cloudy 25 - - - -
21/02:30pm 28.2 WNW 16 23 1015.8 - 0.0 - Partly cloudy 10 - - - -
21/02:00pm 28.6 WNW 16 25 1016.1 - 0.0 - Partly cloudy 10 - - - -
21/01:30pm 28.3 WNW 16 23 1016.3 - 0.0 - Mostly clear 10 - - - -
21/01:00pm 28.8 W 17 24 1016.8 - 0.0 - Mostly clear 10 - - - -
21/12:30pm 28.3 WNW 16 23 1017.0 - 0.0 - Partly cloudy 10 - - - -
21/12:00pm 28.2 W 14 19 1017.3 R 0.0 Smoke Partly cloudy 27 - - - -
21/11:30am 28.5 WNW 13 20 1017.6 - 0.0 - Mostly clear 10 - - - -
21/11:00am 28.3 NW 12 19 1017.8 - 0.0 - Mostly clear 10 - - - -
21/10:30am 27.5 NW 10 14 1018.1 - 0.0 - Mostly clear 10 - - - -
21/10:00am 27.0 NW 11 14 1018.2 - 0.0 - Mostly clear 10 - - - -
21/09:30am 26.5 NW 11 14 1018.2 - 0.0 - Mostly clear 10 - - - -
21/09:00am 26.4 NW 8 11 1018.0 R 0.2 Smoke Mostly clear 25 - - - -
21/08:30am 25.4 NNW 9 12 1017.8 - 0.2 - Mostly clear 10 - - - -
21/08:00am 24.0 NNW 7 10 1017.7 - 0.2 - Mostly clear 10 - - - -
21/07:30am 22.1 N 5 7 1017.5 - 0.2 - Mostly clear 10 - - - -
21/07:00am 19.5 NW 5 6 1017.2 - 0.2 - Mostly clear 10 - - - -
21/06:30am 18.1 NNW 7 8 1016.8 - 0.2 - Mostly clear 10 - - - -
21/06:00am 17.6 N 6 7 1016.5 R 0.2 Smoke Mostly clear 15 - - - -
21/05:30am 17.9 N 6 7 1016.3 - 0.2 - - 10 - - - -
21/05:00am 17.9 N 5 7 1016.1 - 0.2 - Partly cloudy 10 - - - -
21/04:30am 18.2 NW 3 4 1015.7 - 0.2 - - 10 - - - -
21/04:00am 18.1 NNW 4 5 1015.4 - 0.2 - - 10 - - - -
21/03:30am 17.8 NW 3 4 1015.4 - 0.2 - - 10 - - - -
21/03:00am 18.3 WNW 3 4 1015.3 - 0.2 - - 10 - - - -
21/02:30am 18.1 WNW 4 5 1015.5 - 0.2 - - 10 - - - -
21/02:00am 18.4 WNW 3 5 1015.6 - 0.2 - - 10 - - - -
21/01:30am 18.7 WNW 3 4 1015.6 - 0.2 - - 10 - - - -
21/01:00am 19.2 WNW 3 4 1015.9 - 0.2 - - 10 - - - -
21/12:30am 18.8 WSW 3 4 1016.1 - 0.2 - - 10 - - - -
21/12:00am 19.6 CALM 0 0 1016.3 - 0.2 - - 10 - - - -
 
Date/Time
WST
Temp

°C
Wind Pressure Rain
since 9am
mm
Weather Cloud Vis
km
Sea
Height
m
Swell
Dir
 
Speed
knots
Gust
knots
hPa Trend Height
m
Period
s
Dir
20/11:30pm 20.1 ESE 4 5 1016.5 - 0.2 - - 10 - - - -
20/11:00pm 20.0 E 5 6 1016.7 - 0.2 - - 10 - - - -
20/10:30pm 21.2 SSW 4 5 1016.7 - 0.2 - - 10 - - - -
20/10:00pm 21.0 WSW 7 8 1016.6 - 0.2 - - 10 - - - -
20/09:30pm 21.7 WSW 7 9 1016.6 - 0.2 - - 10 - - - -
20/09:00pm 21.9 WSW 5 6 1016.5 - 0.2 - - 10 - - - -
20/08:30pm 22.4 WSW 6 9 1016.3 - 0.2 - - 10 - - - -
20/08:00pm 22.7 W 6 8 1016.0 - 0.2 - - 10 - - - -
20/07:30pm 23.5 W 7 8 1015.7 - 0.2 - - 10 - - - -
20/07:00pm 24.2 W 7 8 1015.2 - 0.2 - - 10 - - - -
20/06:30pm 25.1 W 9 11 1014.8 - 0.2 - - 10 - - - -
20/06:00pm 27.0 NW 7 11 1014.5 - 0.2 - - 10 - - - -
20/05:30pm 26.8 N 9 11 1014.3 - 0.2 - - 10 - - - -
20/05:00pm 28.1 NNE 11 14 1013.9 - 0.2 - - 10 - - - -
20/04:30pm 29.0 NNE 11 14 1013.7 - 0.2 - - 10 - - - -
20/04:00pm 29.6 NNE 9 13 1013.6 - 0.2 - - 10 - - - -
20/03:30pm 29.4 NNE 9 11 1013.6 - 0.2 - - 10 - - - -
20/03:00pm 30.2 NE 9 12 1013.5 - 0.2 - - 10 - - - -
20/02:30pm 30.8 NE 9 12 1013.7 - 0.2 - - 10 - - - -
20/02:00pm 30.3 NE 9 11 1014.0 - 0.2 - - 10 - - - -
20/01:30pm 29.9 NE 9 12 1014.0 - 0.2 - - 10 - - - -
20/01:00pm 29.2 NE 8 10 1014.7 - 0.2 - - 10 - - - -
20/12:30pm 28.2 NNE 7 10 1015.2 - 0.2 - - 10 - - - -
20/12:00pm 27.1 NNE 7 10 1015.5 - 0.2 - - 10 - - - -
20/11:30am 26.3 NE 8 11 1015.9 - 0.2 - - 10 - - - -
20/11:00am 26.4 NNE 8 9 1016.4 - 0.2 - - 10 - - - -
20/10:30am 26.1 NE 7 10 1016.6 - 0.2 - - 10 - - - -
20/10:00am 25.7 ENE 6 8 1016.7 - 0.2 - - 10 - - - -
20/09:30am 24.8 NE 4 7 1016.6 - 0.0 - - 10 - - - -
20/09:00am 23.8 ENE 3 5 1016.4 - 0.0 - - 10 - - - -
20/08:30am 22.5 NNE 5 7 1016.5 - 0.0 - - 10 - - - -
20/08:00am 20.3 SW 4 6 1015.9 - 0.0 - - 10 - - - -
20/07:30am 18.3 SSW 5 7 1015.4 - 0.0 - - 10 - - - -
20/07:00am 16.2 W 4 6 1015.4 - 0.0 - - 10 - - - -
20/06:30am 16.1 N 4 5 1015.5 - 0.0 - - 10 - - - -
20/06:08am 15.7 NNE 7 9 1015.4 - 0.0 - - 9 - - - -
20/06:00am 14.8 W 2 6 1015.1 - 0.0 - - 10 - - - -
20/05:35am 15.9 SW 5 6 1014.7 - 0.0 - Partly cloudy 5 - - - -
20/05:30am 16.1 SW 5 7 1014.6 - 0.0 - Partly cloudy 1 - - - -
20/05:28am 16.1 SW 5 7 1014.5 - 0.0 - Partly cloudy 1 - - - -
20/05:00am 16.8 SW 6 8 1014.3 - 0.0 - Cloudy 0.2 - - - -
20/04:48am 16.9 SSW 6 7 1014.3 - 0.0 - Cloudy 0.8 - - - -
20/04:42am 17.2 SW 5 7 1014.4 - 0.0 - Cloudy 1 - - - -
20/04:30am 17.3 SW 7 8 1014.3 - 0.0 - Cloudy 0.5 - - - -
20/04:06am 16.8 SSW 5 8 1014.5 - 0.0 - Cloudy 0.9 - - - -
20/04:00am 16.7 SSW 7 8 1014.4 - 0.0 - Cloudy 2 - - - -
20/03:33am 15.7 SSW 7 8 1014.5 - 0.0 - Partly cloudy 5 - - - -
20/03:30am 15.7 SSW 7 8 1014.5 - 0.0 - Partly cloudy 6 - - - -
20/03:25am 14.8 SSW 7 8 1014.5 - 0.0 - Partly cloudy 8 - - - -
20/03:00am 15.4 SW 6 6 1014.6 - 0.0 - - 10 - - - -
20/02:30am 15.0 WSW 6 7 1015.2 - 0.0 - - 10 - - - -
20/02:00am 16.1 SW 4 5 1015.4 - 0.0 - - 10 - - - -
20/01:54am 15.3 SW 5 7 1015.5 - 0.0 - - 10 - - - -
20/01:39am 15.4 SSW 6 7 1015.5 - 0.0 - - 8 - - - -
20/01:30am 15.6 S 6 7 1015.6 - 0.0 - - 10 - - - -
20/01:00am 15.9 S 5 6 1015.9 - 0.0 - - 10 - - - -
20/12:30am 16.2 S 8 9 1015.9 - 0.0 - - 10 - - - -
20/12:00am 15.9 SSE 5 7 1016.1 - 0.0 - - 10 - - - -
 
Date/Time
WST
Temp

°C
Wind Pressure Rain
since 9am
mm
Weather Cloud Vis
km
Sea
Height
m
Swell
Dir
 
Speed
knots
Gust
knots
hPa Trend Height
m
Period
s
Dir
19/11:30pm 16.3 S 6 7 1016.4 - 0.0 - - 10 - - - -
19/11:00pm 17.7 SW 7 7 1016.3 - 0.0 - - 10 - - - -
19/10:30pm 17.4 SSW 8 9 1016.5 - 0.0 - - 10 - - - -
19/10:00pm 17.9 S 8 9 1016.6 - 0.0 - - 10 - - - -
19/09:30pm 18.7 S 7 9 1016.7 - 0.0 - - 10 - - - -
19/09:00pm 19.2 SSW 6 8 1016.7 - 0.0 - - 10 - - - -
19/08:57pm 19.5 SW 5 7 1016.7 - 0.0 - - 10 - - - -
19/08:39pm 20.4 SW 5 7 1016.5 - 0.0 - - 7 - - - -
19/08:30pm 20.8 WSW 7 9 1016.4 - 0.0 - - 10 - - - -
19/08:00pm 21.6 W 5 6 1016.2 - 0.0 - - 10 - - - -
19/07:30pm 22.7 WSW 9 13 1015.9 - 0.0 - - 10 - - - -
19/07:00pm 23.6 SW 8 11 1015.5 - 0.0 - - 10 - - - -
19/06:30pm 25.7 W 10 13 1015.0 - 0.0 - - 10 - - - -
19/06:00pm 28.0 W 10 13 1014.4 - 0.0 - - 10 - - - -
19/05:30pm 29.5 W 13 16 1014.3 - 0.0 - - 10 - - - -
19/05:00pm 30.6 WNW 11 15 1014.2 - 0.0 - - 10 - - - -
19/04:30pm 30.6 N 7 9 1014.1 - 0.0 - - 10 - - - -
19/04:00pm 29.9 N 8 10 1014.1 - 0.0 - - 10 - - - -
19/03:30pm 30.3 NNE 9 11 1014.3 - 0.0 - - 10 - - - -
19/03:00pm 30.6 NE 8 10 1014.3 - 0.0 - - 10 - - - -
19/02:30pm 30.0 NE 7 9 1014.6 - 0.0 - - 10 - - - -

Other Formats:

Comma delimited format used in spreadsheet applications
http://www.bom.gov.au/fwo/IDW60701/IDW60701.94302.axf

JavaScript Object Notation format (JSON) in row-major order
http://www.bom.gov.au/fwo/IDW60701/IDW60701.94302.json